Terminal Aerodrome Forecast
Issued by NWS

Home | Current Version | Previous Version | Graphics & Text | Print | Product List | Glossary On
Versions: 1 2 3 4 5 6 7 8 9 10 11 12 13
000
FTUS43 KFGF 021100
TAFBJI
TAF
KBJI 021120Z 0212/0312 18006KT P6SM SCT250
     FM021600 20014G21KT P6SM SCT250
     FM030200 19007KT P6SM VCSH OVC250
     FM030600 16005KT P6SM BKN250=

USA.gov is the U.S. government's official web portal to all federal, state and local government web resources and services.